createdAt,value
2017-10-21T00:00:33.785Z,94483.91
2017-10-21T00:03:01.560Z,94484.01
2017-10-21T00:05:29.366Z,94481.99
2017-10-21T00:07:57.063Z,94485.92
2017-10-21T00:10:24.819Z,94488.80
2017-10-21T00:12:53.060Z,94486.90
2017-10-21T00:15:20.766Z,94483.70
2017-10-21T00:17:48.460Z,94479.75
2017-10-21T00:20:16.211Z,94479.77
2017-10-21T00:22:43.914Z,94477.91
2017-10-21T00:25:11.669Z,94476.23
2017-10-21T00:27:39.398Z,94468.61
2017-10-21T00:30:07.137Z,94469.50
2017-10-21T00:32:34.825Z,94467.44
2017-10-21T00:35:02.593Z,94465.92
2017-10-21T00:37:30.347Z,94466.30
2017-10-21T00:39:58.210Z,94466.11
2017-10-21T00:42:25.946Z,94470.86
2017-10-21T00:44:53.735Z,94472.24
2017-10-21T00:47:21.474Z,94469.50
2017-10-21T00:49:49.237Z,94481.75
2017-10-21T00:52:16.920Z,94480.38
2017-10-21T00:54:44.628Z,94481.48
2017-10-21T00:57:12.444Z,94482.59
2017-10-21T00:59:40.225Z,94479.47
2017-10-21T01:02:07.948Z,94482.28
2017-10-21T01:04:35.754Z,94486.91
2017-10-21T01:07:04.550Z,94485.33
2017-10-21T01:09:32.322Z,94481.72
2017-10-21T01:12:00.071Z,94490.29
2017-10-21T01:14:27.901Z,94490.86
2017-10-21T01:16:56.450Z,94482.47
2017-10-21T01:19:24.189Z,94486.02
2017-10-21T01:21:51.992Z,94482.13
2017-10-21T01:24:19.752Z,94479.91
2017-10-21T01:26:47.486Z,94477.14
2017-10-21T01:29:15.318Z,94485.61
2017-10-21T01:31:43.613Z,94481.95
2017-10-21T01:34:11.367Z,94486.55
2017-10-21T01:36:39.181Z,94479.81
2017-10-21T01:39:06.974Z,94473.85
2017-10-21T01:41:34.808Z,94477.98
2017-10-21T01:44:02.542Z,94474.86
2017-10-21T01:46:30.307Z,94478.90
2017-10-21T01:48:58.162Z,94489.40
2017-10-21T01:51:25.881Z,94488.63
2017-10-21T01:53:53.611Z,94482.89
2017-10-21T01:56:21.381Z,94489.50
2017-10-21T01:58:49.135Z,94481.48
2017-10-21T02:01:16.871Z,94483.55
2017-10-21T02:03:44.600Z,94481.95
2017-10-21T02:06:12.355Z,94482.14
2017-10-21T02:08:40.072Z,94481.64
2017-10-21T02:11:07.838Z,94479.14
2017-10-21T02:13:35.617Z,94483.69
2017-10-21T02:16:03.406Z,94487.73
2017-10-21T02:18:31.124Z,94481.60
2017-10-21T02:20:58.980Z,94482.40
2017-10-21T02:23:26.724Z,94481.17
2017-10-21T02:25:54.536Z,94490.07
2017-10-21T02:28:22.294Z,94486.69
2017-10-21T02:30:50.080Z,94481.42
2017-10-21T02:33:17.815Z,94481.92
2017-10-21T02:35:45.534Z,94486.50
2017-10-21T02:38:13.336Z,94487.98
2017-10-21T02:40:41.098Z,94483.73
2017-10-21T02:43:08.845Z,94486.12
2017-10-21T02:45:36.613Z,94482.00
2017-10-21T02:48:04.391Z,94476.09
2017-10-21T02:50:32.074Z,94475.30
2017-10-21T02:52:59.829Z,94478.52
2017-10-21T02:55:27.523Z,94479.18
2017-10-21T02:57:55.284Z,94471.69
2017-10-21T03:00:23.037Z,94472.09
2017-10-21T03:02:50.853Z,94471.16
2017-10-21T03:05:18.642Z,94468.72
2017-10-21T03:07:46.437Z,94469.45
2017-10-21T03:10:14.373Z,94471.36
2017-10-21T03:12:42.080Z,94470.66
2017-10-21T03:15:09.793Z,94468.50
2017-10-21T03:17:37.571Z,94470.61
2017-10-21T03:20:05.371Z,94469.43
2017-10-21T03:22:33.103Z,94470.34
2017-10-21T03:25:00.819Z,94473.72
2017-10-21T03:27:28.560Z,94469.88
2017-10-21T03:29:56.384Z,94472.23
2017-10-21T03:32:24.080Z,94479.93
2017-10-21T03:34:51.831Z,94484.39
2017-10-21T03:37:20.202Z,94482.79
2017-10-21T03:39:47.953Z,94483.77
2017-10-21T03:42:15.660Z,94482.85
2017-10-21T03:44:43.436Z,94487.74
2017-10-21T03:47:11.110Z,94480.98
2017-10-21T03:49:38.864Z,94482.82
2017-10-21T03:52:06.589Z,94478.80
2017-10-21T03:54:34.473Z,94492.04
2017-10-21T03:57:02.418Z,94487.98
2017-10-21T03:59:30.076Z,94490.69
2017-10-21T04:01:57.826Z,94490.87
2017-10-21T04:04:25.488Z,94490.41
2017-10-21T04:06:53.186Z,94494.20
2017-10-21T04:09:20.967Z,94492.66
2017-10-21T04:11:48.704Z,94488.81
2017-10-21T04:14:16.427Z,94487.34
2017-10-21T04:16:44.273Z,94487.49
2017-10-21T04:19:11.994Z,94487.98
2017-10-21T04:21:39.859Z,94492.16
2017-10-21T04:24:07.737Z,94488.26
2017-10-21T04:26:35.501Z,94488.97
2017-10-21T04:29:03.295Z,94484.66
2017-10-21T04:31:31.035Z,94487.37
2017-10-21T04:33:58.733Z,94492.34
2017-10-21T04:36:26.480Z,94484.91
2017-10-21T04:38:54.198Z,94491.64
2017-10-21T04:41:21.860Z,94485.80
2017-10-21T04:43:49.642Z,94482.63
2017-10-21T04:46:17.370Z,94486.20
2017-10-21T04:48:45.214Z,94483.23
2017-10-21T04:51:12.902Z,94484.00
2017-10-21T04:53:40.655Z,94494.28
2017-10-21T04:56:08.317Z,94490.84
2017-10-21T04:58:35.992Z,94488.02
2017-10-21T05:01:03.734Z,94492.47
2017-10-21T05:03:31.420Z,94491.30
2017-10-21T05:05:59.117Z,94501.11
2017-10-21T05:08:26.825Z,94501.69
2017-10-21T05:10:54.575Z,94506.36
2017-10-21T05:13:22.274Z,94509.34
2017-10-21T05:15:50.030Z,94512.77
2017-10-21T05:18:17.740Z,94505.97
2017-10-21T05:20:45.444Z,94513.01
2017-10-21T05:23:14.204Z,94510.39
2017-10-21T05:25:42.171Z,94510.33
2017-10-21T05:28:09.997Z,94515.74
2017-10-21T05:30:37.688Z,94514.70
2017-10-21T05:33:05.448Z,94519.27
2017-10-21T05:35:33.132Z,94519.27
2017-10-21T05:38:00.910Z,94523.55
2017-10-21T05:40:28.819Z,94524.36
2017-10-21T05:42:56.830Z,94525.00
2017-10-21T05:45:24.656Z,94520.56
2017-10-21T05:47:52.547Z,94515.98
2017-10-21T05:50:20.420Z,94520.88
2017-10-21T05:52:48.239Z,94518.75
2017-10-21T05:55:16.084Z,94518.14
2017-10-21T05:57:43.870Z,94515.89
2017-10-21T06:00:11.707Z,94523.48
2017-10-21T06:02:39.660Z,94524.87
2017-10-21T06:05:07.408Z,94523.35
2017-10-21T06:07:35.204Z,94526.43
2017-10-21T06:10:03.055Z,94526.86
2017-10-21T06:12:30.966Z,94519.48
2017-10-21T06:14:59.057Z,94524.70
2017-10-21T06:17:36.688Z,94522.72
2017-10-21T06:20:04.580Z,94525.38
2017-10-21T06:22:32.427Z,94525.94
2017-10-21T06:25:00.131Z,94524.41
2017-10-21T06:27:28.032Z,94526.03
2017-10-21T06:29:56.222Z,94522.02
2017-10-21T06:32:25.080Z,94526.06
2017-10-21T06:34:53.046Z,94525.59
2017-10-21T06:37:20.901Z,94524.61
2017-10-21T06:39:48.668Z,94524.69
2017-10-21T06:42:16.503Z,94522.27
2017-10-21T06:44:44.340Z,94526.45
2017-10-21T06:47:12.096Z,94524.77
2017-10-21T06:49:39.928Z,94527.80
2017-10-21T06:52:07.677Z,94532.82
2017-10-21T06:54:36.736Z,94532.27
2017-10-21T06:57:04.704Z,94532.64
2017-10-21T06:59:32.476Z,94528.09
2017-10-21T07:02:00.318Z,94524.81
2017-10-21T07:04:28.012Z,94524.73
2017-10-21T07:06:55.834Z,94520.78
2017-10-21T07:09:23.556Z,94530.45
2017-10-21T07:11:51.437Z,94530.38
2017-10-21T07:14:19.426Z,94523.80
2017-10-21T07:16:47.272Z,94530.61
2017-10-21T07:19:15.715Z,94539.97
2017-10-21T07:21:43.526Z,94539.08
2017-10-21T07:24:13.915Z,94534.08
2017-10-21T07:26:43.296Z,94540.21
2017-10-21T07:29:11.265Z,94534.08
2017-10-21T07:31:39.194Z,94529.73
2017-10-21T07:34:10.670Z,94524.88
2017-10-21T07:36:38.733Z,94521.84
2017-10-21T07:39:06.676Z,94519.78
2017-10-21T07:41:34.483Z,94513.15
2017-10-21T07:44:02.283Z,94510.55
2017-10-21T07:46:30.078Z,94510.78
2017-10-21T07:48:57.868Z,94504.77
2017-10-21T07:51:25.823Z,94498.91
2017-10-21T07:53:53.874Z,94500.69
2017-10-21T07:56:21.830Z,94501.36
2017-10-21T07:58:49.726Z,94495.74
2017-10-21T08:01:17.719Z,94495.13
2017-10-21T08:03:45.484Z,94492.44
2017-10-21T08:06:13.494Z,94489.55
2017-10-21T08:08:41.545Z,94492.73
2017-10-21T08:11:09.845Z,94494.03
2017-10-21T08:13:37.743Z,94490.75
2017-10-21T08:16:05.769Z,94492.23
2017-10-21T08:18:33.843Z,94498.66
2017-10-21T08:21:01.926Z,94495.72
2017-10-21T08:23:29.730Z,94492.58
2017-10-21T08:25:58.606Z,94492.02
2017-10-21T08:28:26.578Z,94500.16
2017-10-21T08:30:54.449Z,94500.57
2017-10-21T08:33:22.311Z,94498.97
2017-10-21T08:35:50.197Z,94500.36
2017-10-21T08:38:18.220Z,94505.11
2017-10-21T08:40:46.070Z,94503.25
2017-10-21T08:43:14.084Z,94497.87
2017-10-21T08:45:42.237Z,94498.56
2017-10-21T08:48:10.275Z,94501.31
2017-10-21T08:50:39.377Z,94497.37
2017-10-21T08:53:07.232Z,94497.87
2017-10-21T08:55:35.253Z,94499.08
2017-10-21T08:58:03.851Z,94497.79
2017-10-21T09:00:32.352Z,94495.49
2017-10-21T09:03:00.936Z,94498.67
2017-10-21T09:05:28.929Z,94502.36
2017-10-21T09:07:57.743Z,94502.91
2017-10-21T09:10:25.593Z,94497.59
2017-10-21T09:12:53.385Z,94497.22
2017-10-21T09:15:22.225Z,94493.41
2017-10-21T09:17:50.186Z,94491.33
2017-10-21T09:20:18.233Z,94481.28
2017-10-21T09:22:46.183Z,94481.55
2017-10-21T09:25:14.092Z,94477.48
2017-10-21T09:27:42.643Z,94480.77
2017-10-21T09:30:11.105Z,94481.11
2017-10-21T09:32:39.842Z,94487.14
2017-10-21T09:35:07.684Z,94483.47
2017-10-21T09:37:35.624Z,94480.48
2017-10-21T09:40:04.358Z,94483.18
2017-10-21T09:42:32.381Z,94482.89
2017-10-21T09:45:00.289Z,94478.51
2017-10-21T09:47:28.202Z,94481.39
2017-10-21T09:49:56.964Z,94480.65
2017-10-21T09:52:25.288Z,94481.84
2017-10-21T09:54:54.311Z,94479.12
2017-10-21T09:57:22.246Z,94486.16
2017-10-21T09:59:50.246Z,94481.66
2017-10-21T10:02:18.183Z,94487.12
2017-10-21T10:04:50.036Z,94480.56
2017-10-21T10:07:17.984Z,94478.84
2017-10-21T10:09:46.008Z,94482.26
2017-10-21T10:12:13.948Z,94483.95
2017-10-21T10:14:41.867Z,94484.46
2017-10-21T10:17:11.017Z,94480.38
2017-10-21T10:19:39.112Z,94486.48
2017-10-21T10:22:07.061Z,94485.19
2017-10-21T10:24:34.933Z,94485.72
2017-10-21T10:27:02.815Z,94480.38
2017-10-21T10:29:37.166Z,94487.22
2017-10-21T10:32:05.109Z,94483.26
2017-10-21T10:34:33.570Z,94481.17
2017-10-21T10:37:02.531Z,94484.73
2017-10-21T10:39:31.268Z,94484.00
2017-10-21T10:41:59.006Z,94479.00
2017-10-21T10:44:27.650Z,94475.17
2017-10-21T10:46:56.517Z,94477.45
2017-10-21T10:49:24.611Z,94473.42
2017-10-21T10:51:52.432Z,94475.39
2017-10-21T10:54:20.278Z,94467.69
2017-10-21T10:56:48.012Z,94470.51
2017-10-21T10:59:15.729Z,94459.36
2017-10-21T11:01:43.498Z,94454.89
2017-10-21T11:04:11.227Z,94445.76
2017-10-21T11:06:39.872Z,94452.39
2017-10-21T11:09:09.443Z,94444.13
2017-10-21T11:11:37.205Z,94444.77
2017-10-21T11:14:04.912Z,94436.31
2017-10-21T11:16:32.668Z,94437.62
2017-10-21T11:19:00.385Z,94435.13
2017-10-21T11:21:28.107Z,94436.25
2017-10-21T11:23:55.866Z,94429.58
2017-10-21T11:26:24.462Z,94432.25
2017-10-21T11:28:52.237Z,94432.56
2017-10-21T11:31:19.992Z,94430.92
2017-10-21T11:33:49.464Z,94432.45
2017-10-21T11:36:18.093Z,94435.27
2017-10-21T11:38:45.773Z,94443.39
2017-10-21T11:41:14.621Z,94438.29
2017-10-21T11:43:42.385Z,94441.58
2017-10-21T11:46:10.094Z,94439.09
2017-10-21T11:48:37.897Z,94431.17
2017-10-21T11:51:05.661Z,94432.14
2017-10-21T11:53:33.366Z,94437.78
2017-10-21T11:56:01.964Z,94434.38
2017-10-21T11:58:29.693Z,94442.34
2017-10-21T12:00:57.469Z,94436.08
2017-10-21T12:03:25.210Z,94443.55
2017-10-21T12:05:52.905Z,94446.28
2017-10-21T12:08:20.659Z,94439.45
2017-10-21T12:10:48.416Z,94429.91
2017-10-21T12:13:16.168Z,94426.22
2017-10-21T12:15:43.931Z,94440.44
2017-10-21T12:18:12.671Z,94433.54
2017-10-21T12:20:40.377Z,94434.87
2017-10-21T12:23:08.151Z,94437.68
2017-10-21T12:25:35.856Z,94435.21
2017-10-21T12:28:04.495Z,94424.65
2017-10-21T12:30:32.291Z,94432.58
2017-10-21T12:33:00.021Z,94425.17
2017-10-21T12:35:27.725Z,94413.84
2017-10-21T12:37:56.829Z,94413.58
2017-10-21T12:40:25.566Z,94410.36
2017-10-21T12:42:57.301Z,94404.02
2017-10-21T12:45:27.838Z,94405.27
2017-10-21T12:47:55.669Z,94399.14
2017-10-21T12:50:23.516Z,94398.11
2017-10-21T12:52:51.271Z,94399.23
2017-10-21T12:55:19.022Z,94400.58
2017-10-21T12:57:46.767Z,94396.61
2017-10-21T13:00:14.515Z,94395.16
2017-10-21T13:02:42.279Z,94387.10
2017-10-21T13:05:10.045Z,94387.17
2017-10-21T13:07:37.777Z,94389.14
2017-10-21T13:10:05.590Z,94385.55
2017-10-21T13:12:33.325Z,94382.42
2017-10-21T13:15:01.120Z,94381.73
2017-10-21T13:17:28.839Z,94380.25
2017-10-21T13:19:56.560Z,94375.13
2017-10-21T13:22:24.329Z,94375.22
2017-10-21T13:24:52.118Z,94366.53
2017-10-21T13:27:19.865Z,94359.86
2017-10-21T13:29:47.615Z,94354.67
2017-10-21T13:32:15.565Z,94358.41
2017-10-21T13:34:43.358Z,94363.34
2017-10-21T13:37:11.071Z,94357.96
2017-10-21T13:39:39.175Z,94347.80
2017-10-21T13:42:06.898Z,94347.21
2017-10-21T13:44:34.657Z,94344.48
2017-10-21T13:47:02.394Z,94348.13
2017-10-21T13:49:30.101Z,94357.67
2017-10-21T13:51:57.901Z,94344.00
2017-10-21T13:54:25.749Z,94341.42
2017-10-21T13:56:53.498Z,94336.73
2017-10-21T13:59:21.283Z,94331.12
2017-10-21T14:01:49.088Z,94327.20
2017-10-21T14:04:16.770Z,94323.67
2017-10-21T14:06:44.968Z,94330.91
2017-10-21T14:09:12.754Z,94328.32
2017-10-21T14:11:40.644Z,94322.60
2017-10-21T14:14:09.588Z,94329.11
2017-10-21T14:16:37.298Z,94323.44
2017-10-21T14:19:05.091Z,94316.14
2017-10-21T14:21:32.823Z,94323.78
2017-10-21T14:24:00.556Z,94321.66
2017-10-21T14:26:28.345Z,94315.13
2017-10-21T14:28:57.333Z,94311.41
2017-10-21T14:31:25.139Z,94312.57
2017-10-21T14:33:52.950Z,94313.20
2017-10-21T14:36:20.710Z,94313.94
2017-10-21T14:38:48.499Z,94308.98
2017-10-21T14:41:16.286Z,94308.51
2017-10-21T14:43:44.059Z,94310.61
2017-10-21T14:46:11.834Z,94311.98
2017-10-21T14:48:39.581Z,94303.70
2017-10-21T14:51:07.697Z,94302.77
2017-10-21T14:53:35.468Z,94299.89
2017-10-21T14:56:03.234Z,94293.16
2017-10-21T14:58:31.001Z,94298.20
2017-10-21T15:00:58.784Z,94298.25
2017-10-21T15:03:26.480Z,94301.84
2017-10-21T15:05:54.433Z,94295.30
2017-10-21T15:08:22.171Z,94305.87
2017-10-21T15:10:50.734Z,94299.00
2017-10-21T15:13:19.102Z,94295.55
2017-10-21T15:15:47.217Z,94312.98
2017-10-21T15:18:14.974Z,94299.77
2017-10-21T15:20:42.765Z,94303.89
2017-10-21T15:23:10.505Z,94312.05
2017-10-21T15:25:38.309Z,94298.16
2017-10-21T15:28:06.114Z,94297.77
2017-10-21T15:30:34.149Z,94305.84
2017-10-21T15:33:01.999Z,94297.76
2017-10-21T15:35:29.799Z,94294.70
2017-10-21T15:37:57.887Z,94296.28
2017-10-21T15:40:25.589Z,94296.45
2017-10-21T15:42:53.350Z,94299.13
2017-10-21T15:45:22.402Z,94293.72
2017-10-21T15:47:50.282Z,94296.70
2017-10-21T15:50:19.049Z,94290.88
2017-10-21T15:52:47.204Z,94298.78
2017-10-21T15:55:14.972Z,94297.82
2017-10-21T15:57:42.797Z,94303.72
2017-10-21T16:00:10.605Z,94305.85
2017-10-21T16:02:38.406Z,94301.38
2017-10-21T16:05:06.397Z,94303.58
2017-10-21T16:07:34.155Z,94304.73
2017-10-21T16:10:02.336Z,94303.74
2017-10-21T16:12:30.116Z,94305.92
2017-10-21T16:14:57.883Z,94312.30
2017-10-21T16:17:25.631Z,94307.00
2017-10-21T16:19:53.349Z,94302.16
2017-10-21T16:22:21.150Z,94308.20
2017-10-21T16:24:48.852Z,94304.19
2017-10-21T16:27:16.557Z,94306.86
2017-10-21T16:29:44.292Z,94309.42
2017-10-21T16:32:12.063Z,94305.01
2017-10-21T16:34:39.811Z,94301.53
2017-10-21T16:37:07.590Z,94296.72
2017-10-21T16:39:35.349Z,94296.23
2017-10-21T16:42:03.153Z,94306.27
2017-10-21T16:44:30.845Z,94303.66
2017-10-21T16:46:58.626Z,94309.38
2017-10-21T16:49:26.347Z,94308.34
2017-10-21T16:51:54.240Z,94309.67
2017-10-21T16:54:22.127Z,94314.81
2017-10-21T16:56:49.979Z,94315.67
2017-10-21T16:59:17.872Z,94319.92
2017-10-21T17:01:45.663Z,94318.91
2017-10-21T17:04:13.472Z,94321.30
2017-10-21T17:06:42.045Z,94321.32
2017-10-21T17:09:09.874Z,94323.42
2017-10-21T17:11:37.603Z,94320.72
2017-10-21T17:14:05.324Z,94327.85
2017-10-21T17:16:33.222Z,94323.50
2017-10-21T17:19:00.929Z,94331.53
2017-10-21T17:21:28.756Z,94333.41
2017-10-21T17:23:56.585Z,94329.07
2017-10-21T17:26:24.332Z,94334.27
2017-10-21T17:28:52.086Z,94329.47
2017-10-21T17:31:20.029Z,94328.83
2017-10-21T17:33:47.820Z,94334.52
2017-10-21T17:36:15.605Z,94328.88
2017-10-21T17:38:43.469Z,94328.69
2017-10-21T17:41:11.278Z,94330.22
2017-10-21T17:43:39.092Z,94336.64
2017-10-21T17:46:08.086Z,94337.17
2017-10-21T17:48:35.867Z,94332.70
2017-10-21T17:51:03.711Z,94334.09
2017-10-21T17:53:31.478Z,94336.42
2017-10-21T17:55:59.274Z,94335.07
2017-10-21T17:58:27.005Z,94326.61
2017-10-21T18:00:54.830Z,94331.47
2017-10-21T18:03:22.607Z,94332.98
2017-10-21T18:05:50.549Z,94328.81
2017-10-21T18:08:18.496Z,94321.94
2017-10-21T18:10:46.293Z,94325.23
2017-10-21T18:13:14.055Z,94327.48
2017-10-21T18:15:41.924Z,94323.52
2017-10-21T18:18:09.682Z,94324.60
2017-10-21T18:20:37.420Z,94326.58
2017-10-21T18:23:06.057Z,94324.20
2017-10-21T18:25:34.630Z,94321.99
2017-10-21T18:28:02.419Z,94324.94
2017-10-21T18:30:30.200Z,94319.05
2017-10-21T18:32:58.020Z,94320.85
2017-10-21T18:35:25.852Z,94319.74
2017-10-21T18:37:54.788Z,94328.46
2017-10-21T18:40:22.655Z,94324.04
2017-10-21T18:42:50.466Z,94323.23
2017-10-21T18:45:18.487Z,94323.93
2017-10-21T18:47:46.248Z,94325.33
2017-10-21T18:50:13.950Z,94327.73
2017-10-21T18:52:41.781Z,94318.97
2017-10-21T18:55:09.536Z,94315.78
2017-10-21T18:57:37.366Z,94320.05
2017-10-21T19:00:05.116Z,94313.97
2017-10-21T19:02:32.907Z,94313.50
2017-10-21T19:05:00.639Z,94312.37
2017-10-21T19:07:29.533Z,94311.49
2017-10-21T19:09:58.146Z,94308.89
2017-10-21T19:12:26.014Z,94304.91
2017-10-21T19:14:53.752Z,94310.26
2017-10-21T19:17:21.660Z,94302.22
2017-10-21T19:19:49.457Z,94304.70
2017-10-21T19:22:17.259Z,94302.42
2017-10-21T19:24:44.979Z,94303.59
2017-10-21T19:27:13.684Z,94299.24
2017-10-21T19:29:41.509Z,94295.03
2017-10-21T19:32:09.307Z,94295.02
2017-10-21T19:34:37.153Z,94299.33
2017-10-21T19:37:05.431Z,94290.08
2017-10-21T19:39:33.206Z,94297.95
2017-10-21T19:42:00.987Z,94294.03
2017-10-21T19:44:28.692Z,94302.40
2017-10-21T19:46:56.492Z,94305.11
2017-10-21T19:49:24.209Z,94309.88
2017-10-21T19:51:51.912Z,94315.96
2017-10-21T19:54:19.681Z,94312.19
2017-10-21T19:56:47.370Z,94306.17
2017-10-21T19:59:15.069Z,94309.28
2017-10-21T20:01:42.842Z,94308.69
2017-10-21T20:04:10.601Z,94303.11
2017-10-21T20:06:38.477Z,94311.69
2017-10-21T20:09:06.846Z,94304.76
2017-10-21T20:11:35.230Z,94305.75
2017-10-21T20:14:02.981Z,94308.61
2017-10-21T20:16:30.771Z,94307.81
2017-10-21T20:18:58.540Z,94309.11
2017-10-21T20:21:26.456Z,94309.11
2017-10-21T20:23:54.160Z,94303.77
2017-10-21T20:26:21.933Z,94304.42
2017-10-21T20:28:49.661Z,94304.73
2017-10-21T20:31:17.374Z,94300.04
2017-10-21T20:33:45.178Z,94304.72
2017-10-21T20:36:12.939Z,94299.84
2017-10-21T20:38:40.754Z,94288.30
2017-10-21T20:41:08.453Z,94279.92
2017-10-21T20:43:36.234Z,94275.73
2017-10-21T20:46:04.071Z,94278.23
2017-10-21T20:48:31.825Z,94281.86
2017-10-21T20:50:59.755Z,94278.02
2017-10-21T20:53:27.506Z,94285.73
2017-10-21T20:55:55.288Z,94285.25
2017-10-21T20:58:23.043Z,94289.12
2017-10-21T21:00:50.776Z,94284.45
2017-10-21T21:03:18.589Z,94276.28
2017-10-21T21:05:46.390Z,94279.18
2017-10-21T21:08:14.106Z,94280.77
2017-10-21T21:10:41.880Z,94276.98
2017-10-21T21:13:09.585Z,94272.00
2017-10-21T21:15:37.338Z,94261.16
2017-10-21T21:18:05.071Z,94262.05
2017-10-21T21:20:32.858Z,94260.45
2017-10-21T21:23:00.652Z,94255.78
2017-10-21T21:25:28.371Z,94252.50
2017-10-21T21:27:56.085Z,94256.11
2017-10-21T21:30:23.839Z,94261.35
2017-10-21T21:32:51.589Z,94257.91
2017-10-21T21:35:19.321Z,94254.13
2017-10-21T21:37:47.094Z,94245.43
2017-10-21T21:40:14.816Z,94242.97
2017-10-21T21:42:42.604Z,94242.53
2017-10-21T21:45:10.333Z,94246.52
2017-10-21T21:47:38.030Z,94243.73
2017-10-21T21:50:06.106Z,94242.77
2017-10-21T21:52:33.851Z,94239.78
2017-10-21T21:55:01.613Z,94237.10
2017-10-21T21:57:29.414Z,94241.58
2017-10-21T21:59:57.167Z,94235.31
2017-10-21T22:02:24.985Z,94229.54
2017-10-21T22:04:52.673Z,94231.73
2017-10-21T22:07:20.407Z,94224.95
2017-10-21T22:09:48.175Z,94220.28
2017-10-21T22:12:15.896Z,94215.50
2017-10-21T22:14:43.654Z,94219.88
2017-10-21T22:17:11.372Z,94217.00
2017-10-21T22:19:39.132Z,94217.33
2017-10-21T22:22:06.845Z,94215.01
2017-10-21T22:24:34.599Z,94211.13
2017-10-21T22:27:02.427Z,94212.91
2017-10-21T22:29:30.550Z,94203.95
2017-10-21T22:31:58.250Z,94203.95
2017-10-21T22:34:26.031Z,94204.86
2017-10-21T22:36:53.711Z,94212.65
2017-10-21T22:39:21.646Z,94213.34
2017-10-21T22:41:49.402Z,94212.25
2017-10-21T22:44:17.086Z,94205.98
2017-10-21T22:46:44.830Z,94207.97
2017-10-21T22:49:12.525Z,94210.06
2017-10-21T22:51:40.304Z,94199.81
2017-10-21T22:54:08.045Z,94202.80
2017-10-21T22:56:35.792Z,94207.97
2017-10-21T22:59:03.488Z,94204.22
2017-10-21T23:01:31.208Z,94208.39
2017-10-21T23:03:58.944Z,94203.91
2017-10-21T23:06:26.758Z,94207.80
2017-10-21T23:08:54.520Z,94209.89
2017-10-21T23:11:22.214Z,94209.89
2017-10-21T23:13:50.023Z,94207.61
2017-10-21T23:16:17.756Z,94200.95
2017-10-21T23:18:45.444Z,94198.45
2017-10-21T23:21:13.373Z,94199.84
2017-10-21T23:23:41.085Z,94193.98
2017-10-21T23:26:08.846Z,94195.68
2017-10-21T23:28:36.664Z,94189.00
2017-10-21T23:31:04.360Z,94193.27
2017-10-21T23:33:32.105Z,94186.91
2017-10-21T23:35:59.799Z,94185.42
2017-10-21T23:38:27.483Z,94185.91
2017-10-21T23:40:55.228Z,94187.61
2017-10-21T23:43:22.921Z,94185.75
2017-10-21T23:45:50.684Z,94180.16
2017-10-21T23:48:18.477Z,94179.65
2017-10-21T23:50:46.152Z,94178.77
2017-10-21T23:53:13.901Z,94178.47
2017-10-21T23:55:41.903Z,94182.53
2017-10-21T23:58:09.651Z,94187.30
